sensor_id;sensor_type;location;lat;lon;timestamp;P1;durP1;ratioP1;P2;durP2;ratioP2
34645;SDS011;20857;47.808;12.482;2023-07-09T00:01:42;1999.90;;;999.90;;
34645;SDS011;20857;47.808;12.482;2023-07-09T00:04:09;1999.90;;;999.90;;
34645;SDS011;20857;47.808;12.482;2023-07-09T00:06:39;1999.90;;;999.90;;
34645;SDS011;20857;47.808;12.482;2023-07-09T00:09:06;1999.90;;;999.90;;
34645;SDS011;20857;47.808;12.482;2023-07-09T00:11:41;1999.90;;;999.90;;
34645;SDS011;20857;47.808;12.482;2023-07-09T00:14:08;1999.90;;;999.90;;
34645;SDS011;20857;47.808;12.482;2023-07-09T00:16:34;1999.90;;;999.90;;
34645;SDS011;20857;47.808;12.482;2023-07-09T00:19:02;1999.90;;;999.90;;
34645;SDS011;20857;47.808;12.482;2023-07-09T00:21:29;1999.90;;;999.90;;
34645;SDS011;20857;47.808;12.482;2023-07-09T00:23:59;1999.90;;;999.90;;
34645;SDS011;20857;47.808;12.482;2023-07-09T00:26:30;1999.90;;;999.90;;
34645;SDS011;20857;47.808;12.482;2023-07-09T00:28:57;1999.90;;;999.90;;
34645;SDS011;20857;47.808;12.482;2023-07-09T00:31:24;1999.90;;;999.90;;
34645;SDS011;20857;47.808;12.482;2023-07-09T00:33:49;1999.90;;;999.90;;
34645;SDS011;20857;47.808;12.482;2023-07-09T00:36:16;1999.90;;;999.90;;
34645;SDS011;20857;47.808;12.482;2023-07-09T00:38:48;1999.90;;;999.90;;
34645;SDS011;20857;47.808;12.482;2023-07-09T00:41:20;1999.90;;;999.90;;
34645;SDS011;20857;47.808;12.482;2023-07-09T00:43:48;1999.90;;;999.90;;
34645;SDS011;20857;47.808;12.482;2023-07-09T00:49:05;1999.90;;;999.90;;
34645;SDS011;20857;47.808;12.482;2023-07-09T00:51:36;1999.90;;;999.90;;
34645;SDS011;20857;47.808;12.482;2023-07-09T00:54:09;1999.90;;;999.90;;
34645;SDS011;20857;47.808;12.482;2023-07-09T00:56:45;1999.90;;;999.90;;
34645;SDS011;20857;47.808;12.482;2023-07-09T00:59:16;1999.90;;;999.90;;
34645;SDS011;20857;47.808;12.482;2023-07-09T01:01:45;1999.90;;;999.90;;
34645;SDS011;20857;47.808;12.482;2023-07-09T01:04:15;1999.90;;;999.90;;
34645;SDS011;20857;47.808;12.482;2023-07-09T01:06:47;1999.90;;;999.90;;
34645;SDS011;20857;47.808;12.482;2023-07-09T01:09:16;1999.90;;;999.90;;
34645;SDS011;20857;47.808;12.482;2023-07-09T01:11:42;1999.90;;;999.90;;
34645;SDS011;20857;47.808;12.482;2023-07-09T01:14:10;1999.90;;;999.90;;
34645;SDS011;20857;47.808;12.482;2023-07-09T01:16:39;1999.90;;;999.90;;
34645;SDS011;20857;47.808;12.482;2023-07-09T01:19:08;1999.90;;;999.90;;
34645;SDS011;20857;47.808;12.482;2023-07-09T01:21:34;1999.90;;;999.90;;
34645;SDS011;20857;47.808;12.482;2023-07-09T01:24:11;1999.90;;;999.90;;
34645;SDS011;20857;47.808;12.482;2023-07-09T01:26:51;1999.90;;;999.90;;
34645;SDS011;20857;47.808;12.482;2023-07-09T01:29:17;1999.90;;;999.90;;
34645;SDS011;20857;47.808;12.482;2023-07-09T01:31:42;1999.90;;;999.90;;
34645;SDS011;20857;47.808;12.482;2023-07-09T01:34:08;1999.90;;;999.90;;
34645;SDS011;20857;47.808;12.482;2023-07-09T01:36:34;1999.90;;;999.90;;
34645;SDS011;20857;47.808;12.482;2023-07-09T01:39:00;1999.90;;;999.90;;
34645;SDS011;20857;47.808;12.482;2023-07-09T01:41:25;1999.90;;;999.90;;
34645;SDS011;20857;47.808;12.482;2023-07-09T01:43:51;1999.90;;;999.90;;
34645;SDS011;20857;47.808;12.482;2023-07-09T01:46:17;1999.90;;;999.90;;
34645;SDS011;20857;47.808;12.482;2023-07-09T01:48:43;1999.90;;;999.90;;
34645;SDS011;20857;47.808;12.482;2023-07-09T01:51:10;1999.90;;;999.90;;
34645;SDS011;20857;47.808;12.482;2023-07-09T01:53:39;1999.90;;;999.90;;
34645;SDS011;20857;47.808;12.482;2023-07-09T01:56:05;1999.90;;;999.90;;
34645;SDS011;20857;47.808;12.482;2023-07-09T01:58:35;1999.90;;;999.90;;
34645;SDS011;20857;47.808;12.482;2023-07-09T02:01:01;1999.90;;;999.90;;
34645;SDS011;20857;47.808;12.482;2023-07-09T02:03:27;1999.90;;;999.90;;
34645;SDS011;20857;47.808;12.482;2023-07-09T02:05:53;1999.90;;;999.90;;
34645;SDS011;20857;47.808;12.482;2023-07-09T02:08:19;1999.90;;;999.90;;
34645;SDS011;20857;47.808;12.482;2023-07-09T02:10:45;1999.90;;;999.90;;
34645;SDS011;20857;47.808;12.482;2023-07-09T02:13:13;1999.90;;;999.90;;
34645;SDS011;20857;47.808;12.482;2023-07-09T02:15:39;1999.90;;;999.90;;
34645;SDS011;20857;47.808;12.482;2023-07-09T02:18:08;1999.90;;;999.90;;
34645;SDS011;20857;47.808;12.482;2023-07-09T02:20:36;1999.90;;;999.90;;
34645;SDS011;20857;47.808;12.482;2023-07-09T02:23:02;1999.90;;;999.90;;
34645;SDS011;20857;47.808;12.482;2023-07-09T02:25:28;1999.90;;;999.90;;
34645;SDS011;20857;47.808;12.482;2023-07-09T02:27:54;1999.90;;;999.90;;
34645;SDS011;20857;47.808;12.482;2023-07-09T02:30:19;1999.90;;;999.90;;
34645;SDS011;20857;47.808;12.482;2023-07-09T02:32:45;1999.90;;;999.90;;
34645;SDS011;20857;47.808;12.482;2023-07-09T02:35:10;1999.90;;;999.90;;
34645;SDS011;20857;47.808;12.482;2023-07-09T02:37:36;1999.90;;;999.90;;
34645;SDS011;20857;47.808;12.482;2023-07-09T02:40:02;1999.90;;;999.90;;
34645;SDS011;20857;47.808;12.482;2023-07-09T02:42:29;1999.90;;;999.90;;
34645;SDS011;20857;47.808;12.482;2023-07-09T02:44:54;1999.90;;;999.90;;
34645;SDS011;20857;47.808;12.482;2023-07-09T02:47:20;1999.90;;;999.90;;
34645;SDS011;20857;47.808;12.482;2023-07-09T02:49:45;1999.90;;;999.90;;
34645;SDS011;20857;47.808;12.482;2023-07-09T02:52:11;1999.90;;;999.90;;
34645;SDS011;20857;47.808;12.482;2023-07-09T02:54:37;1999.90;;;999.90;;
34645;SDS011;20857;47.808;12.482;2023-07-09T02:57:02;1999.90;;;999.90;;
34645;SDS011;20857;47.808;12.482;2023-07-09T02:59:28;1999.90;;;999.90;;
34645;SDS011;20857;47.808;12.482;2023-07-09T03:01:54;1999.90;;;999.90;;
34645;SDS011;20857;47.808;12.482;2023-07-09T03:04:20;1999.90;;;999.90;;
34645;SDS011;20857;47.808;12.482;2023-07-09T03:06:46;1999.90;;;999.90;;
34645;SDS011;20857;47.808;12.482;2023-07-09T03:09:12;1999.90;;;999.90;;
34645;SDS011;20857;47.808;12.482;2023-07-09T03:11:38;1999.90;;;999.90;;
34645;SDS011;20857;47.808;12.482;2023-07-09T03:14:03;1999.90;;;999.90;;
34645;SDS011;20857;47.808;12.482;2023-07-09T03:16:30;1999.90;;;999.90;;
34645;SDS011;20857;47.808;12.482;2023-07-09T03:18:57;1999.90;;;999.90;;
34645;SDS011;20857;47.808;12.482;2023-07-09T03:21:23;1999.90;;;999.90;;
34645;SDS011;20857;47.808;12.482;2023-07-09T03:23:50;1999.90;;;999.90;;
34645;SDS011;20857;47.808;12.482;2023-07-09T03:26:16;1999.90;;;999.90;;
34645;SDS011;20857;47.808;12.482;2023-07-09T03:28:42;1999.90;;;999.90;;
34645;SDS011;20857;47.808;12.482;2023-07-09T03:31:08;1999.90;;;999.90;;
34645;SDS011;20857;47.808;12.482;2023-07-09T03:33:33;1999.90;;;999.90;;
34645;SDS011;20857;47.808;12.482;2023-07-09T03:35:59;1999.90;;;999.90;;
34645;SDS011;20857;47.808;12.482;2023-07-09T03:38:24;1999.90;;;999.90;;
34645;SDS011;20857;47.808;12.482;2023-07-09T03:40:51;1999.90;;;999.90;;
34645;SDS011;20857;47.808;12.482;2023-07-09T03:43:20;1999.90;;;999.90;;
34645;SDS011;20857;47.808;12.482;2023-07-09T03:45:46;1999.90;;;999.90;;
34645;SDS011;20857;47.808;12.482;2023-07-09T03:48:13;1999.90;;;999.90;;
34645;SDS011;20857;47.808;12.482;2023-07-09T03:50:39;1999.90;;;999.90;;
34645;SDS011;20857;47.808;12.482;2023-07-09T03:53:07;1999.90;;;999.90;;
34645;SDS011;20857;47.808;12.482;2023-07-09T03:55:32;1999.90;;;999.90;;
34645;SDS011;20857;47.808;12.482;2023-07-09T03:57:58;1999.90;;;999.90;;
34645;SDS011;20857;47.808;12.482;2023-07-09T04:00:23;1999.90;;;999.90;;
34645;SDS011;20857;47.808;12.482;2023-07-09T04:02:52;1999.90;;;999.90;;
34645;SDS011;20857;47.808;12.482;2023-07-09T04:05:18;1999.90;;;999.90;;
34645;SDS011;20857;47.808;12.482;2023-07-09T04:07:44;1999.90;;;999.90;;
34645;SDS011;20857;47.808;12.482;2023-07-09T04:10:10;1999.90;;;999.90;;
34645;SDS011;20857;47.808;12.482;2023-07-09T04:12:36;1999.90;;;999.90;;
34645;SDS011;20857;47.808;12.482;2023-07-09T04:15:05;1999.90;;;999.90;;
34645;SDS011;20857;47.808;12.482;2023-07-09T04:17:31;1999.90;;;999.90;;
34645;SDS011;20857;47.808;12.482;2023-07-09T04:19:57;1999.90;;;999.90;;
34645;SDS011;20857;47.808;12.482;2023-07-09T04:22:23;1999.90;;;999.90;;
34645;SDS011;20857;47.808;12.482;2023-07-09T04:24:48;1999.90;;;999.90;;
34645;SDS011;20857;47.808;12.482;2023-07-09T04:27:15;1999.90;;;999.90;;
34645;SDS011;20857;47.808;12.482;2023-07-09T04:29:41;1999.90;;;999.90;;
34645;SDS011;20857;47.808;12.482;2023-07-09T04:32:13;1999.90;;;999.90;;
34645;SDS011;20857;47.808;12.482;2023-07-09T04:34:39;1999.90;;;999.90;;
34645;SDS011;20857;47.808;12.482;2023-07-09T04:37:06;1999.90;;;999.90;;
34645;SDS011;20857;47.808;12.482;2023-07-09T04:39:32;1999.90;;;999.90;;
34645;SDS011;20857;47.808;12.482;2023-07-09T04:41:58;1999.90;;;999.90;;
34645;SDS011;20857;47.808;12.482;2023-07-09T04:44:24;1999.90;;;999.90;;
34645;SDS011;20857;47.808;12.482;2023-07-09T04:46:50;1999.90;;;999.90;;
34645;SDS011;20857;47.808;12.482;2023-07-09T04:49:15;1999.90;;;999.90;;
34645;SDS011;20857;47.808;12.482;2023-07-09T04:51:41;1999.90;;;999.90;;
34645;SDS011;20857;47.808;12.482;2023-07-09T04:54:07;1999.90;;;999.90;;
34645;SDS011;20857;47.808;12.482;2023-07-09T04:56:32;1999.90;;;999.90;;
34645;SDS011;20857;47.808;12.482;2023-07-09T04:58:58;1999.90;;;999.90;;
34645;SDS011;20857;47.808;12.482;2023-07-09T05:01:24;1999.90;;;999.90;;
34645;SDS011;20857;47.808;12.482;2023-07-09T05:03:50;1999.90;;;999.90;;
34645;SDS011;20857;47.808;12.482;2023-07-09T05:06:16;1999.90;;;999.90;;
34645;SDS011;20857;47.808;12.482;2023-07-09T05:08:41;1999.90;;;999.90;;
34645;SDS011;20857;47.808;12.482;2023-07-09T05:11:08;1999.90;;;999.90;;
34645;SDS011;20857;47.808;12.482;2023-07-09T05:13:35;1999.90;;;999.90;;
34645;SDS011;20857;47.808;12.482;2023-07-09T05:16:01;1999.90;;;999.90;;
34645;SDS011;20857;47.808;12.482;2023-07-09T05:18:27;1999.90;;;999.90;;
34645;SDS011;20857;47.808;12.482;2023-07-09T05:20:54;1999.90;;;999.90;;
34645;SDS011;20857;47.808;12.482;2023-07-09T05:23:20;1999.90;;;999.90;;
34645;SDS011;20857;47.808;12.482;2023-07-09T05:25:46;1999.90;;;999.90;;
34645;SDS011;20857;47.808;12.482;2023-07-09T05:28:12;1999.90;;;999.90;;
34645;SDS011;20857;47.808;12.482;2023-07-09T05:30:40;1999.90;;;999.90;;
34645;SDS011;20857;47.808;12.482;2023-07-09T05:33:06;1999.90;;;999.90;;
34645;SDS011;20857;47.808;12.482;2023-07-09T05:35:32;1999.90;;;999.90;;
34645;SDS011;20857;47.808;12.482;2023-07-09T05:37:58;1999.90;;;999.90;;
34645;SDS011;20857;47.808;12.482;2023-07-09T05:40:23;1999.90;;;999.90;;
34645;SDS011;20857;47.808;12.482;2023-07-09T05:42:49;1999.90;;;999.90;;
34645;SDS011;20857;47.808;12.482;2023-07-09T05:45:15;1999.90;;;999.90;;
34645;SDS011;20857;47.808;12.482;2023-07-09T05:47:41;1999.90;;;999.90;;
34645;SDS011;20857;47.808;12.482;2023-07-09T05:50:07;1999.90;;;999.90;;
34645;SDS011;20857;47.808;12.482;2023-07-09T05:52:33;1999.90;;;999.90;;
34645;SDS011;20857;47.808;12.482;2023-07-09T05:54:58;1999.90;;;999.90;;
34645;SDS011;20857;47.808;12.482;2023-07-09T05:57:24;1999.90;;;999.90;;
34645;SDS011;20857;47.808;12.482;2023-07-09T05:59:50;1999.90;;;999.90;;
34645;SDS011;20857;47.808;12.482;2023-07-09T06:02:17;1999.90;;;999.90;;
34645;SDS011;20857;47.808;12.482;2023-07-09T06:04:44;1999.90;;;999.90;;
34645;SDS011;20857;47.808;12.482;2023-07-09T06:07:10;1999.90;;;999.90;;
34645;SDS011;20857;47.808;12.482;2023-07-09T06:09:37;1999.90;;;999.90;;
34645;SDS011;20857;47.808;12.482;2023-07-09T06:12:03;1999.90;;;999.90;;
34645;SDS011;20857;47.808;12.482;2023-07-09T06:14:30;1999.90;;;999.90;;
34645;SDS011;20857;47.808;12.482;2023-07-09T06:16:56;1999.90;;;999.90;;
34645;SDS011;20857;47.808;12.482;2023-07-09T06:19:22;1999.90;;;999.90;;
34645;SDS011;20857;47.808;12.482;2023-07-09T06:21:48;1999.90;;;999.90;;
34645;SDS011;20857;47.808;12.482;2023-07-09T06:24:14;1999.90;;;999.90;;
34645;SDS011;20857;47.808;12.482;2023-07-09T06:26:39;1999.90;;;999.90;;
34645;SDS011;20857;47.808;12.482;2023-07-09T06:29:05;1999.90;;;999.90;;
34645;SDS011;20857;47.808;12.482;2023-07-09T06:31:31;1999.90;;;999.90;;
34645;SDS011;20857;47.808;12.482;2023-07-09T06:33:56;1999.90;;;999.90;;
34645;SDS011;20857;47.808;12.482;2023-07-09T06:36:22;1999.90;;;999.90;;
34645;SDS011;20857;47.808;12.482;2023-07-09T06:38:48;1999.90;;;999.90;;
34645;SDS011;20857;47.808;12.482;2023-07-09T06:41:14;1999.90;;;999.90;;
34645;SDS011;20857;47.808;12.482;2023-07-09T06:43:40;1999.90;;;999.90;;
34645;SDS011;20857;47.808;12.482;2023-07-09T06:46:06;1999.90;;;999.90;;
34645;SDS011;20857;47.808;12.482;2023-07-09T06:48:36;1999.90;;;999.90;;
34645;SDS011;20857;47.808;12.482;2023-07-09T06:51:02;1999.90;;;999.90;;
34645;SDS011;20857;47.808;12.482;2023-07-09T06:53:28;1999.90;;;999.90;;
34645;SDS011;20857;47.808;12.482;2023-07-09T06:55:54;1999.90;;;999.90;;
34645;SDS011;20857;47.808;12.482;2023-07-09T06:58:24;1999.90;;;999.90;;
34645;SDS011;20857;47.808;12.482;2023-07-09T07:00:52;1999.90;;;999.90;;
34645;SDS011;20857;47.808;12.482;2023-07-09T07:03:19;1999.90;;;999.90;;
34645;SDS011;20857;47.808;12.482;2023-07-09T07:05:45;1999.90;;;999.90;;
34645;SDS011;20857;47.808;12.482;2023-07-09T07:08:15;1999.90;;;999.90;;
34645;SDS011;20857;47.808;12.482;2023-07-09T07:10:43;1999.90;;;999.90;;
34645;SDS011;20857;47.808;12.482;2023-07-09T07:13:09;1999.90;;;999.90;;
34645;SDS011;20857;47.808;12.482;2023-07-09T07:15:36;1999.90;;;999.90;;
34645;SDS011;20857;47.808;12.482;2023-07-09T07:18:03;1999.90;;;999.90;;
34645;SDS011;20857;47.808;12.482;2023-07-09T07:20:29;1999.90;;;999.90;;
34645;SDS011;20857;47.808;12.482;2023-07-09T07:22:54;1999.90;;;999.90;;
34645;SDS011;20857;47.808;12.482;2023-07-09T07:25:21;1999.90;;;999.90;;
34645;SDS011;20857;47.808;12.482;2023-07-09T07:27:46;1999.90;;;999.90;;
34645;SDS011;20857;47.808;12.482;2023-07-09T07:30:12;1999.90;;;999.90;;
34645;SDS011;20857;47.808;12.482;2023-07-09T07:32:38;1999.90;;;999.90;;
34645;SDS011;20857;47.808;12.482;2023-07-09T07:35:08;1999.90;;;999.90;;
34645;SDS011;20857;47.808;12.482;2023-07-09T07:37:34;1999.90;;;999.90;;
34645;SDS011;20857;47.808;12.482;2023-07-09T07:40:00;1999.90;;;999.90;;
34645;SDS011;20857;47.808;12.482;2023-07-09T07:42:26;1999.90;;;999.90;;
34645;SDS011;20857;47.808;12.482;2023-07-09T07:44:51;1999.90;;;999.90;;
34645;SDS011;20857;47.808;12.482;2023-07-09T07:47:17;1999.90;;;999.90;;
34645;SDS011;20857;47.808;12.482;2023-07-09T07:49:43;1999.90;;;999.90;;
34645;SDS011;20857;47.808;12.482;2023-07-09T07:52:08;1999.90;;;999.90;;
34645;SDS011;20857;47.808;12.482;2023-07-09T07:54:35;1999.90;;;999.90;;
34645;SDS011;20857;47.808;12.482;2023-07-09T07:57:01;1999.90;;;999.90;;
34645;SDS011;20857;47.808;12.482;2023-07-09T07:59:26;1999.90;;;999.90;;
34645;SDS011;20857;47.808;12.482;2023-07-09T08:01:52;1999.90;;;999.90;;
34645;SDS011;20857;47.808;12.482;2023-07-09T08:04:18;1999.90;;;999.90;;
34645;SDS011;20857;47.808;12.482;2023-07-09T08:06:44;1999.90;;;999.90;;
34645;SDS011;20857;47.808;12.482;2023-07-09T08:09:09;1999.90;;;999.90;;
34645;SDS011;20857;47.808;12.482;2023-07-09T08:11:35;1999.90;;;999.90;;
34645;SDS011;20857;47.808;12.482;2023-07-09T08:14:00;1999.90;;;999.90;;
34645;SDS011;20857;47.808;12.482;2023-07-09T08:16:26;1999.90;;;999.90;;
34645;SDS011;20857;47.808;12.482;2023-07-09T08:18:52;1999.90;;;999.90;;
34645;SDS011;20857;47.808;12.482;2023-07-09T08:21:18;1999.90;;;999.90;;
34645;SDS011;20857;47.808;12.482;2023-07-09T08:23:44;1999.90;;;999.90;;
34645;SDS011;20857;47.808;12.482;2023-07-09T08:26:10;1999.90;;;999.90;;
34645;SDS011;20857;47.808;12.482;2023-07-09T08:28:36;1999.90;;;999.90;;
34645;SDS011;20857;47.808;12.482;2023-07-09T08:31:02;1999.90;;;999.90;;
34645;SDS011;20857;47.808;12.482;2023-07-09T08:33:29;1999.90;;;999.90;;
34645;SDS011;20857;47.808;12.482;2023-07-09T08:35:55;1999.90;;;999.90;;
34645;SDS011;20857;47.808;12.482;2023-07-09T08:38:21;1999.90;;;999.90;;
34645;SDS011;20857;47.808;12.482;2023-07-09T08:41:01;1999.90;;;999.90;;
34645;SDS011;20857;47.808;12.482;2023-07-09T08:49:18;1999.90;;;999.90;;
34645;SDS011;20857;47.808;12.482;2023-07-09T08:51:54;903.70;;;824.67;;
34645;SDS011;20857;47.808;12.482;2023-07-09T08:56:55;1999.90;;;999.90;;
34645;SDS011;20857;47.808;12.482;2023-07-09T08:59:27;1999.90;;;999.90;;
34645;SDS011;20857;47.808;12.482;2023-07-09T09:01:54;1999.90;;;999.90;;
34645;SDS011;20857;47.808;12.482;2023-07-09T09:04:27;1999.90;;;999.90;;
34645;SDS011;20857;47.808;12.482;2023-07-09T09:06:57;1999.90;;;999.90;;
34645;SDS011;20857;47.808;12.482;2023-07-09T09:09:33;1999.90;;;999.90;;
34645;SDS011;20857;47.808;12.482;2023-07-09T09:14:44;1999.90;;;999.90;;
34645;SDS011;20857;47.808;12.482;2023-07-09T09:17:17;1999.90;;;999.90;;
34645;SDS011;20857;47.808;12.482;2023-07-09T09:19:45;1999.90;;;999.90;;
34645;SDS011;20857;47.808;12.482;2023-07-09T09:22:18;1999.90;;;999.90;;
34645;SDS011;20857;47.808;12.482;2023-07-09T09:27:36;1999.90;;;999.90;;
34645;SDS011;20857;47.808;12.482;2023-07-09T09:30:03;1999.90;;;999.90;;
34645;SDS011;20857;47.808;12.482;2023-07-09T09:32:31;1999.90;;;999.90;;
34645;SDS011;20857;47.808;12.482;2023-07-09T09:35:15;1999.90;;;999.90;;
34645;SDS011;20857;47.808;12.482;2023-07-09T09:37:44;1023.53;;;922.08;;
34645;SDS011;20857;47.808;12.482;2023-07-09T09:40:17;719.20;;;666.03;;
34645;SDS011;20857;47.808;12.482;2023-07-09T09:42:47;1267.55;;;934.25;;
34645;SDS011;20857;47.808;12.482;2023-07-09T09:45:14;629.25;;;584.63;;
34645;SDS011;20857;47.808;12.482;2023-07-09T09:47:43;765.90;;;701.40;;
34645;SDS011;20857;47.808;12.482;2023-07-09T09:50:13;937.15;;;849.60;;
34645;SDS011;20857;47.808;12.482;2023-07-09T09:52:43;1556.32;;;900.08;;
34645;SDS011;20857;47.808;12.482;2023-07-09T09:55:16;1999.90;;;999.90;;
34645;SDS011;20857;47.808;12.482;2023-07-09T09:57:48;856.53;;;786.13;;
34645;SDS011;20857;47.808;12.482;2023-07-09T10:00:15;1787.95;;;982.33;;
34645;SDS011;20857;47.808;12.482;2023-07-09T10:02:42;1405.43;;;890.75;;
34645;SDS011;20857;47.808;12.482;2023-07-09T10:05:14;938.83;;;825.75;;
34645;SDS011;20857;47.808;12.482;2023-07-09T10:07:46;1147.60;;;939.22;;
34645;SDS011;20857;47.808;12.482;2023-07-09T10:10:20;629.40;;;585.13;;
34645;SDS011;20857;47.808;12.482;2023-07-09T10:12:51;635.73;;;588.00;;
34645;SDS011;20857;47.808;12.482;2023-07-09T10:21:14;546.13;;;504.30;;
34645;SDS011;20857;47.808;12.482;2023-07-09T10:26:32;526.72;;;483.90;;
34645;SDS011;20857;47.808;12.482;2023-07-09T10:29:14;716.88;;;659.42;;
34645;SDS011;20857;47.808;12.482;2023-07-09T10:32:06;657.72;;;606.40;;
34645;SDS011;20857;47.808;12.482;2023-07-09T10:34:45;849.67;;;778.22;;
34645;SDS011;20857;47.808;12.482;2023-07-09T10:40:04;753.70;;;687.85;;
34645;SDS011;20857;47.808;12.482;2023-07-09T10:45:13;786.10;;;721.65;;
34645;SDS011;20857;47.808;12.482;2023-07-09T10:47:48;878.10;;;785.97;;
34645;SDS011;20857;47.808;12.482;2023-07-09T10:50:23;640.85;;;592.60;;
34645;SDS011;20857;47.808;12.482;2023-07-09T10:52:57;935.17;;;832.45;;
34645;SDS011;20857;47.808;12.482;2023-07-09T10:55:41;689.95;;;635.22;;
34645;SDS011;20857;47.808;12.482;2023-07-09T11:01:17;767.33;;;697.45;;
34645;SDS011;20857;47.808;12.482;2023-07-09T11:03:51;735.05;;;675.70;;
34645;SDS011;20857;47.808;12.482;2023-07-09T11:06:23;1133.55;;;855.92;;
34645;SDS011;20857;47.808;12.482;2023-07-09T11:09:24;738.63;;;670.83;;
34645;SDS011;20857;47.808;12.482;2023-07-09T11:11:56;752.92;;;692.78;;
34645;SDS011;20857;47.808;12.482;2023-07-09T11:14:34;952.00;;;862.13;;
34645;SDS011;20857;47.808;12.482;2023-07-09T11:17:03;836.22;;;765.80;;
34645;SDS011;20857;47.808;12.482;2023-07-09T11:19:31;1067.03;;;949.95;;
34645;SDS011;20857;47.808;12.482;2023-07-09T11:21:57;1033.38;;;921.40;;
34645;SDS011;20857;47.808;12.482;2023-07-09T11:24:30;918.05;;;822.83;;
34645;SDS011;20857;47.808;12.482;2023-07-09T11:26:56;1168.00;;;978.13;;
34645;SDS011;20857;47.808;12.482;2023-07-09T11:29:24;1049.05;;;935.72;;
34645;SDS011;20857;47.808;12.482;2023-07-09T11:31:50;1166.63;;;974.38;;
34645;SDS011;20857;47.808;12.482;2023-07-09T11:34:17;1081.75;;;931.30;;
34645;SDS011;20857;47.808;12.482;2023-07-09T11:36:48;1391.28;;;781.38;;
34645;SDS011;20857;47.808;12.482;2023-07-09T11:39:21;1115.45;;;970.13;;
34645;SDS011;20857;47.808;12.482;2023-07-09T11:41:55;1139.15;;;823.22;;
34645;SDS011;20857;47.808;12.482;2023-07-09T11:44:25;895.50;;;631.15;;
34645;SDS011;20857;47.808;12.482;2023-07-09T11:49:56;1999.90;;;999.90;;
34645;SDS011;20857;47.808;12.482;2023-07-09T11:52:34;945.85;;;851.53;;
34645;SDS011;20857;47.808;12.482;2023-07-09T11:55:39;904.50;;;808.17;;
34645;SDS011;20857;47.808;12.482;2023-07-09T11:58:08;950.42;;;846.22;;
34645;SDS011;20857;47.808;12.482;2023-07-09T12:00:42;1999.90;;;999.90;;
34645;SDS011;20857;47.808;12.482;2023-07-09T12:05:59;959.63;;;855.90;;
34645;SDS011;20857;47.808;12.482;2023-07-09T12:08:32;1584.03;;;815.70;;
34645;SDS011;20857;47.808;12.482;2023-07-09T12:11:02;1999.90;;;999.90;;
34645;SDS011;20857;47.808;12.482;2023-07-09T12:13:28;895.30;;;720.88;;
34645;SDS011;20857;47.808;12.482;2023-07-09T12:16:01;1999.90;;;999.90;;
34645;SDS011;20857;47.808;12.482;2023-07-09T12:18:26;1600.40;;;812.08;;
34645;SDS011;20857;47.808;12.482;2023-07-09T12:20:55;1999.90;;;999.90;;
34645;SDS011;20857;47.808;12.482;2023-07-09T12:25:55;1999.90;;;999.90;;
34645;SDS011;20857;47.808;12.482;2023-07-09T12:28:26;1999.90;;;999.90;;
34645;SDS011;20857;47.808;12.482;2023-07-09T12:30:53;1999.90;;;999.90;;
34645;SDS011;20857;47.808;12.482;2023-07-09T12:33:26;1999.90;;;999.90;;
34645;SDS011;20857;47.808;12.482;2023-07-09T12:35:57;1999.90;;;999.90;;
34645;SDS011;20857;47.808;12.482;2023-07-09T12:38:24;1999.90;;;999.90;;
34645;SDS011;20857;47.808;12.482;2023-07-09T12:40:52;1999.90;;;999.90;;
34645;SDS011;20857;47.808;12.482;2023-07-09T12:43:22;1999.90;;;999.90;;
34645;SDS011;20857;47.808;12.482;2023-07-09T12:45:51;1999.90;;;999.90;;
34645;SDS011;20857;47.808;12.482;2023-07-09T12:48:18;1999.90;;;999.90;;
34645;SDS011;20857;47.808;12.482;2023-07-09T12:50:51;1999.90;;;999.90;;
34645;SDS011;20857;47.808;12.482;2023-07-09T12:53:20;1999.90;;;999.90;;
34645;SDS011;20857;47.808;12.482;2023-07-09T12:55:51;1999.90;;;999.90;;
34645;SDS011;20857;47.808;12.482;2023-07-09T12:58:22;1999.90;;;999.90;;
34645;SDS011;20857;47.808;12.482;2023-07-09T13:01:04;1999.90;;;999.90;;
34645;SDS011;20857;47.808;12.482;2023-07-09T13:03:33;1999.90;;;999.90;;
34645;SDS011;20857;47.808;12.482;2023-07-09T13:06:03;1999.90;;;999.90;;
34645;SDS011;20857;47.808;12.482;2023-07-09T13:08:31;1999.90;;;999.90;;
34645;SDS011;20857;47.808;12.482;2023-07-09T13:11:13;1999.90;;;999.90;;
34645;SDS011;20857;47.808;12.482;2023-07-09T13:13:40;1999.90;;;999.90;;
34645;SDS011;20857;47.808;12.482;2023-07-09T13:16:05;1999.90;;;999.90;;
34645;SDS011;20857;47.808;12.482;2023-07-09T13:18:31;1999.90;;;999.90;;
34645;SDS011;20857;47.808;12.482;2023-07-09T13:20:57;1999.90;;;999.90;;
34645;SDS011;20857;47.808;12.482;2023-07-09T13:23:25;1999.90;;;999.90;;
34645;SDS011;20857;47.808;12.482;2023-07-09T13:25:52;1999.90;;;999.90;;
34645;SDS011;20857;47.808;12.482;2023-07-09T13:28:22;1999.90;;;999.90;;
34645;SDS011;20857;47.808;12.482;2023-07-09T13:30:59;1999.90;;;999.90;;
34645;SDS011;20857;47.808;12.482;2023-07-09T13:33:32;1999.90;;;999.90;;
34645;SDS011;20857;47.808;12.482;2023-07-09T13:35:58;1999.90;;;999.90;;
34645;SDS011;20857;47.808;12.482;2023-07-09T13:38:24;1999.90;;;999.90;;
34645;SDS011;20857;47.808;12.482;2023-07-09T13:40:54;1999.90;;;999.90;;
34645;SDS011;20857;47.808;12.482;2023-07-09T13:43:32;1999.90;;;999.90;;
34645;SDS011;20857;47.808;12.482;2023-07-09T13:45:59;1999.90;;;999.90;;
34645;SDS011;20857;47.808;12.482;2023-07-09T13:48:28;1999.90;;;999.90;;
34645;SDS011;20857;47.808;12.482;2023-07-09T13:50:54;1999.90;;;999.90;;
34645;SDS011;20857;47.808;12.482;2023-07-09T13:53:22;1999.90;;;999.90;;
34645;SDS011;20857;47.808;12.482;2023-07-09T13:55:49;1999.90;;;999.90;;
34645;SDS011;20857;47.808;12.482;2023-07-09T13:58:16;1999.90;;;999.90;;
34645;SDS011;20857;47.808;12.482;2023-07-09T14:00:44;1999.90;;;999.90;;
34645;SDS011;20857;47.808;12.482;2023-07-09T14:03:17;1999.90;;;999.90;;
34645;SDS011;20857;47.808;12.482;2023-07-09T14:05:46;1999.90;;;999.90;;
34645;SDS011;20857;47.808;12.482;2023-07-09T14:08:13;1999.90;;;999.90;;
34645;SDS011;20857;47.808;12.482;2023-07-09T14:10:39;1999.90;;;999.90;;
34645;SDS011;20857;47.808;12.482;2023-07-09T14:13:05;1999.90;;;999.90;;
34645;SDS011;20857;47.808;12.482;2023-07-09T14:15:33;1999.90;;;999.90;;
34645;SDS011;20857;47.808;12.482;2023-07-09T14:17:59;1999.90;;;999.90;;
34645;SDS011;20857;47.808;12.482;2023-07-09T14:20:25;1999.90;;;999.90;;
34645;SDS011;20857;47.808;12.482;2023-07-09T14:22:50;1999.90;;;999.90;;